Time;durP1;ratioP1;P1;durP2;ratioP2;P2;SDS_P1;SDS_P2;PMS_P1;PMS_P2;Temp;Humidity;BMP_temperature;BMP_pressure;BME280_temperature;BME280_humidity;BME280_pressure;Samples;Min_cycle;Max_cycle;Signal;HPM_P1;HPM_P2
2023/01/21 00:00:13;;;;;;;14.07;7.93;;;0.20;99.90;-0.10;101171.00;;;;4779558;29;109549;-67
2023/01/21 00:02:38;;;;;;;11.27;7.27;;;0.20;99.90;-0.10;101175.00;;;;4779550;29;102391;-68
2023/01/21 00:05:04;;;;;;;13.93;8.00;;;-0.70;99.90;-0.10;101167.00;;;;4778262;29;99960;-67
2023/01/21 00:07:30;;;;;;;13.17;8.30;;;0.20;99.90;-0.10;101173.00;;;;4781454;29;88925;-67
2023/01/21 00:09:56;;;;;;;14.00;7.73;;;0.40;99.90;-0.10;101176.00;;;;4779776;29;109162;-67
2023/01/21 00:12:21;;;;;;;12.23;8.17;;;0.30;99.90;-0.10;101187.00;;;;4779296;29;108986;-66
2023/01/21 00:14:47;;;;;;;12.77;7.50;;;0.30;99.90;-0.10;101183.00;;;;4742287;29;1149283;-67
2023/01/21 00:17:13;;;;;;;9.10;7.30;;;1.00;99.90;-0.10;101183.00;;;;4786866;29;118665;-67
2023/01/21 00:19:38;;;;;;;11.00;7.13;;;0.20;99.90;-0.10;101184.00;;;;4781844;29;109754;-67
2023/01/21 00:22:04;;;;;;;13.00;8.10;;;0.30;99.90;-0.10;101198.00;;;;4784341;29;109571;-67
2023/01/21 00:24:29;;;;;;;16.90;8.07;;;0.30;99.90;-0.10;101190.00;;;;4781225;29;117246;-68
2023/01/21 00:26:55;;;;;;;13.93;7.80;;;0.20;99.90;-0.10;101198.00;;;;4782306;29;117989;-67
2023/01/21 00:29:21;;;;;;;14.97;8.23;;;0.20;99.90;-0.10;101203.00;;;;4788923;29;109271;-67
2023/01/21 00:31:47;;;;;;;16.73;7.30;;;0.20;99.90;-0.10;101209.00;;;;4782730;29;88019;-67
2023/01/21 00:34:13;;;;;;;9.83;6.40;;;0.30;99.90;-0.10;101204.00;;;;4781598;29;88498;-66
2023/01/21 00:36:39;;;;;;;17.70;8.03;;;0.30;99.90;-0.10;101201.00;;;;4782229;29;87831;-69
2023/01/21 00:39:06;;;;;;;19.13;8.33;;;0.30;99.90;-0.10;101204.00;;;;4781942;29;109860;-68
2023/01/21 00:41:32;;;;;;;17.30;8.77;;;0.20;99.90;-0.20;101195.00;;;;4780338;29;87755;-69
2023/01/21 00:43:58;;;;;;;16.77;7.90;;;0.20;99.90;-0.20;101194.00;;;;4780903;29;87987;-67
2023/01/21 00:46:23;;;;;;;12.63;6.93;;;0.20;99.90;-0.20;101199.00;;;;4779269;29;117289;-67
2023/01/21 00:48:49;;;;;;;13.47;8.40;;;0.20;99.90;-0.20;101198.00;;;;4780075;29;110910;-67
2023/01/21 00:51:15;;;;;;;12.60;7.83;;;0.10;99.90;-0.20;101197.00;;;;4779022;29;108483;-68
2023/01/21 00:53:41;;;;;;;10.70;7.00;;;0.20;99.90;-0.20;101190.00;;;;4781910;29;89921;-68
2023/01/21 00:56:12;;;;;;;9.50;7.13;;;0.00;99.90;-0.20;101188.00;;;;4760091;29;118628;-68
2023/01/21 00:58:38;;;;;;;15.40;8.23;;;0.20;99.90;-0.20;101201.00;;;;4781982;29;88172;-69
2023/01/21 01:01:12;;;;;;;15.63;7.07;;;0.20;99.90;-0.20;101195.00;;;;4781860;29;88128;-69
2023/01/21 01:03:39;;;;;;;11.07;7.27;;;0.20;99.90;-0.20;101200.00;;;;4782494;29;88003;-67
2023/01/21 01:06:11;;;;;;;12.47;6.97;;;0.10;99.90;-0.30;101199.00;;;;4792601;29;106157;-67
2023/01/21 01:08:37;;;;;;;14.37;6.90;;;0.10;99.90;-0.20;101198.00;;;;4781835;29;104784;-69
2023/01/21 01:11:03;;;;;;;10.67;6.63;;;0.30;99.90;-0.20;101211.00;;;;4781870;29;108285;-68
2023/01/21 01:13:29;;;;;;;14.20;6.17;;;0.10;99.90;-0.20;101215.00;;;;4780093;29;111567;-67
2023/01/21 01:15:57;;;;;;;11.90;7.97;;;0.20;99.90;-0.20;101212.00;;;;4784727;29;88186;-67
2023/01/21 01:18:24;;;;;;;14.20;7.00;;;0.10;99.90;-0.20;101217.00;;;;4784037;29;88765;-68
2023/01/21 01:20:51;;;;;;;9.10;6.40;;;0.10;99.90;-0.20;101216.00;;;;4782637;29;87876;-68
2023/01/21 01:23:16;;;;;;;10.53;5.53;;;0.10;99.90;-0.20;101222.00;;;;4782320;29;87628;-69
2023/01/21 01:25:42;;;;;;;11.27;5.57;;;0.10;99.90;-0.30;101219.00;;;;4785588;29;109610;-68
2023/01/21 01:28:08;;;;;;;8.53;5.10;;;0.20;99.90;-0.30;101219.00;;;;4784176;29;101661;-67
2023/01/21 01:30:35;;;;;;;12.70;6.10;;;0.10;99.90;-0.30;101219.00;;;;4783118;29;87851;-67
2023/01/21 01:33:01;;;;;;;8.37;6.13;;;0.10;99.90;-0.30;101219.00;;;;4797239;29;88390;-67
2023/01/21 01:35:27;;;;;;;14.00;6.40;;;0.10;99.90;-0.30;101234.00;;;;4785851;29;88217;-67
2023/01/21 01:37:53;;;;;;;9.23;5.67;;;0.10;99.90;-0.30;101227.00;;;;4783245;29;110033;-67
2023/01/21 01:40:19;;;;;;;10.03;5.60;;;0.10;99.90;-0.30;101229.00;;;;4785025;29;108354;-68
2023/01/21 01:42:45;;;;;;;7.30;5.67;;;0.10;99.90;-0.30;101231.00;;;;4784186;29;110132;-67
2023/01/21 01:45:13;;;;;;;13.00;6.40;;;0.10;99.90;-0.30;101232.00;;;;4785058;29;108473;-67
2023/01/21 01:47:58;;;;;;;9.43;5.33;;;0.10;99.90;-0.30;101230.00;;;;4786334;29;88680;-67
2023/01/21 01:50:30;;;;;;;12.73;6.47;;;0.10;99.90;-0.30;101228.00;;;;4797052;29;87947;-68
2023/01/21 01:52:59;;;;;;;13.90;7.20;;;0.10;99.90;-0.40;101227.00;;;;4795494;29;103982;-67
2023/01/21 01:55:27;;;;;;;14.00;6.80;;;0.00;99.90;-0.40;101237.00;;;;4795118;29;90001;-68
2023/01/21 01:57:54;;;;;;;11.43;6.07;;;0.10;99.90;-0.40;101226.00;;;;4782442;29;102901;-68
2023/01/21 02:00:21;;;;;;;10.17;6.53;;;0.00;99.90;-0.40;101228.00;;;;4784249;29;87307;-67
2023/01/21 02:03:43;;;;;;;12.07;5.23;;;0.00;99.90;-0.40;101215.00;;;;4798514;29;110908;-68
2023/01/21 02:05:33;;;;;;;9.17;6.07;;;0.00;99.90;-0.40;101226.00;;;;4786527;29;87891;-68
2023/01/21 02:08:00;;;;;;;7.67;5.40;;;0.00;99.90;-0.40;101231.00;;;;4782070;29;105957;-68
2023/01/21 02:10:26;;;;;;;8.97;5.23;;;-0.10;99.90;-0.40;101232.00;;;;4785122;29;100968;-68
2023/01/21 02:12:53;;;;;;;12.50;6.70;;;0.00;99.90;-0.40;101241.00;;;;4783587;29;88267;-67
2023/01/21 02:15:19;;;;;;;9.93;5.63;;;-0.40;99.90;-0.40;101241.00;;;;4782443;29;116340;-67
2023/01/21 02:18:22;;;;;;;12.80;6.40;;;0.00;99.90;-0.40;101251.00;;;;4785843;29;88271;-67
2023/01/21 02:21:51;;;;;;;12.07;6.87;;;0.00;99.90;-0.40;101244.00;;;;4797924;29;87836;-67
2023/01/21 02:24:57;;;;;;;9.73;6.87;;;0.00;99.90;-0.40;101243.00;;;;4774241;29;111716;-67
2023/01/21 02:27:41;;;;;;;9.63;6.43;;;-0.10;99.90;-0.40;101257.00;;;;4786245;29;87171;-67
2023/01/21 02:30:40;;;;;;;9.80;6.07;;;-0.10;99.90;-0.50;101252.00;;;;4795698;29;87857;-68
2023/01/21 02:33:39;;;;;;;10.40;6.23;;;-0.10;99.90;-0.50;101254.00;;;;4783755;29;88020;-67
2023/01/21 02:36:33;;;;;;;13.53;7.10;;;-0.10;99.90;-0.50;101246.00;;;;4781698;29;105748;-67
2023/01/21 02:39:47;;;;;;;16.60;7.50;;;-0.10;99.90;-0.50;101250.00;;;;4795431;29;107734;-67
2023/01/21 02:42:46;;;;;;;13.23;6.93;;;-0.10;99.90;-0.50;101244.00;;;;4774663;29;87939;-67
2023/01/21 02:45:41;;;;;;;12.50;6.80;;;-0.20;99.90;-0.50;101251.00;;;;4782185;29;87958;-68
2023/01/21 02:48:14;;;;;;;10.63;6.50;;;-0.10;99.90;-0.40;101243.00;;;;4780045;29;87694;-68
2023/01/21 02:50:50;;;;;;;13.77;7.67;;;0.00;99.90;-0.40;101245.00;;;;4782065;29;97815;-67
2023/01/21 02:53:26;;;;;;;9.77;6.20;;;-0.10;99.90;-0.50;101238.00;;;;4795069;29;97476;-67
2023/01/21 02:55:52;;;;;;;16.93;8.27;;;-0.10;99.90;-0.50;101240.00;;;;4783854;29;88521;-67
2023/01/21 02:58:23;;;;;;;16.43;9.00;;;-0.10;99.90;-0.50;101242.00;;;;4782889;29;89173;-67
2023/01/21 03:01:30;;;;;;;11.43;6.40;;;-0.20;99.90;-0.50;101246.00;;;;4766328;29;89231;-67
2023/01/21 03:04:19;;;;;;;9.53;7.07;;;-0.10;99.90;-0.50;101252.00;;;;4782443;29;88848;-67
2023/01/21 03:07:18;;;;;;;12.53;6.83;;;-0.10;99.90;-0.50;101267.00;;;;4783005;29;87883;-67
2023/01/21 03:09:44;;;;;;;11.83;7.50;;;0.00;99.90;-0.50;101260.00;;;;4780090;29;109258;-67
2023/01/21 03:12:57;;;;;;;10.43;6.33;;;-0.10;99.90;-0.50;101265.00;;;;4779965;29;118034;-68
2023/01/21 03:18:32;;;;;;;9.27;5.67;;;-0.10;99.90;-0.50;101266.00;;;;4779143;29;87653;-68
2023/01/21 03:21:04;;;;;;;6.33;5.57;;;0.00;99.90;-0.50;101262.00;;;;4782791;29;108829;-68
2023/01/21 03:23:35;;;;;;;9.87;6.30;;;0.00;99.90;-0.50;101264.00;;;;4779586;29;87100;-67
2023/01/21 03:26:02;;;;;;;12.40;6.10;;;0.00;99.90;-0.50;101269.00;;;;4794667;29;88080;-67
2023/01/21 03:28:32;;;;;;;11.83;6.07;;;-0.10;99.90;-0.50;101266.00;;;;4774658;29;96246;-67
2023/01/21 03:31:28;;;;;;;11.50;6.47;;;-0.10;99.90;-0.50;101264.00;;;;4780256;29;113389;-67
2023/01/21 03:33:59;;;;;;;8.73;5.90;;;-0.10;99.90;-0.50;101281.00;;;;4772899;29;87994;-68
2023/01/21 03:36:40;;;;;;;15.17;7.07;;;-0.20;99.90;-0.50;101266.00;;;;4782332;29;87824;-67
2023/01/21 03:39:25;;;;;;;8.67;6.17;;;-0.10;99.90;-0.50;101284.00;;;;4778571;29;101088;-67
2023/01/21 03:41:51;;;;;;;8.67;6.33;;;-0.20;99.90;-0.50;101279.00;;;;4782109;29;88075;-66
2023/01/21 03:44:17;;;;;;;11.63;6.47;;;-0.20;99.90;-0.50;101282.00;;;;4780468;29;117952;-67
2023/01/21 03:47:22;;;;;;;11.23;6.03;;;-0.20;99.90;-0.50;101286.00;;;;4783756;29;111009;-67
2023/01/21 03:50:13;;;;;;;11.83;5.83;;;-0.10;99.90;-0.50;101271.00;;;;4764826;29;87098;-68
2023/01/21 03:52:41;;;;;;;9.63;5.63;;;-0.10;99.90;-0.50;101280.00;;;;4793756;29;110984;-68
2023/01/21 03:55:12;;;;;;;8.97;6.20;;;-0.20;99.90;-0.50;101276.00;;;;4779351;29;106891;-68
2023/01/21 03:57:38;;;;;;;9.63;5.30;;;0.00;99.90;-0.50;101269.00;;;;4782025;29;88779;-67
2023/01/21 04:00:05;;;;;;;10.00;5.57;;;-0.10;99.90;-0.50;101277.00;;;;4778338;29;87948;-68
2023/01/21 04:02:31;;;;;;;13.93;7.10;;;-0.10;99.90;-0.50;101273.00;;;;4783967;29;107779;-67
2023/01/21 04:04:57;;;;;;;10.33;7.10;;;-0.10;99.90;-0.50;101273.00;;;;4780638;29;99178;-67
2023/01/21 04:07:23;;;;;;;15.50;6.87;;;-0.10;99.90;-0.50;101280.00;;;;4783694;29;98809;-67
2023/01/21 04:09:49;;;;;;;13.37;6.37;;;-0.10;99.90;-0.50;101287.00;;;;4777234;29;108513;-68
2023/01/21 04:12:15;;;;;;;9.30;5.83;;;-0.10;99.90;-0.50;101280.00;;;;4778889;29;89108;-67
2023/01/21 04:14:40;;;;;;;12.63;8.07;;;-0.10;99.90;-0.50;101287.00;;;;4784753;29;89017;-67
2023/01/21 04:17:07;;;;;;;18.60;8.60;;;-0.20;99.90;-0.50;101282.00;;;;4782311;29;110245;-68
2023/01/21 04:19:32;;;;;;;17.10;10.10;;;-0.20;99.90;-0.60;101286.00;;;;4777634;29;106199;-67
2023/01/21 04:21:58;;;;;;;14.53;8.40;;;-0.20;99.90;-0.60;101284.00;;;;4777805;29;119417;-67
2023/01/21 04:24:24;;;;;;;14.30;9.57;;;-0.30;99.90;-0.60;101291.00;;;;4781348;29;118643;-67
2023/01/21 04:26:50;;;;;;;20.17;8.87;;;-0.20;99.90;-0.60;101295.00;;;;4783019;29;91506;-67
2023/01/21 04:29:16;;;;;;;15.93;8.60;;;-0.20;99.90;-0.50;101301.00;;;;4782804;29;87764;-68
2023/01/21 04:31:42;;;;;;;18.03;10.73;;;-0.20;99.90;-0.50;101295.00;;;;4781970;29;87983;-67
2023/01/21 04:34:08;;;;;;;22.60;9.93;;;-0.10;99.90;-0.60;101290.00;;;;4792293;29;88159;-67
2023/01/21 04:36:34;;;;;;;24.43;10.60;;;-0.20;99.90;-0.60;101294.00;;;;4781760;29;87779;-67
2023/01/21 04:38:59;;;;;;;15.13;9.10;;;-0.20;99.90;-0.60;101290.00;;;;4781156;29;87297;-67
2023/01/21 04:41:25;;;;;;;17.93;9.73;;;-0.20;99.90;-0.60;101291.00;;;;4777896;29;119233;-67
2023/01/21 04:43:51;;;;;;;20.40;10.00;;;0.00;99.90;-0.60;101291.00;;;;4780777;29;117524;-68
2023/01/21 04:46:16;;;;;;;23.37;10.63;;;-0.20;99.90;-0.60;101294.00;;;;4780330;29;94069;-67
2023/01/21 04:48:42;;;;;;;22.23;11.27;;;-0.30;99.90;-0.50;101290.00;;;;4784729;29;89051;-67
2023/01/21 04:51:08;;;;;;;19.77;9.07;;;-0.20;99.90;-0.60;101302.00;;;;4784178;29;116397;-68
2023/01/21 04:53:33;;;;;;;15.17;8.97;;;-0.10;99.90;-0.50;101294.00;;;;4784295;29;116794;-67
2023/01/21 04:55:59;;;;;;;17.27;9.80;;;-0.20;99.90;-0.60;101293.00;;;;4781926;29;110774;-67
2023/01/21 04:58:26;;;;;;;19.37;8.93;;;0.10;99.90;-0.50;101295.00;;;;4781468;29;108302;-67
2023/01/21 05:00:53;;;;;;;15.20;8.07;;;-0.20;99.90;-0.50;101301.00;;;;4784648;29;89389;-69
2023/01/21 05:03:19;;;;;;;14.50;8.20;;;-0.20;99.90;-0.60;101300.00;;;;4783359;29;107464;-66
2023/01/21 05:05:44;;;;;;;12.60;8.07;;;-0.20;99.90;-0.50;101305.00;;;;4787383;29;110203;-67
2023/01/21 05:08:10;;;;;;;18.63;6.97;;;-0.20;99.90;-0.50;101300.00;;;;4783877;29;108574;-67
2023/01/21 05:10:36;;;;;;;10.27;5.73;;;-0.10;99.90;-0.60;101311.00;;;;4783012;29;119663;-67
2023/01/21 05:13:02;;;;;;;10.40;6.63;;;-0.30;99.90;-0.50;101310.00;;;;4783729;29;117188;-67
2023/01/21 05:15:27;;;;;;;9.80;5.90;;;-0.30;99.90;-0.50;101318.00;;;;4781103;29;95921;-68
2023/01/21 05:17:53;;;;;;;5.83;3.53;;;-0.20;99.90;-0.50;101319.00;;;;4782094;29;109136;-67
2023/01/21 05:20:19;;;;;;;6.57;4.30;;;-0.20;99.90;-0.50;101312.00;;;;4783494;29;117953;-67
2023/01/21 05:22:46;;;;;;;6.70;4.00;;;-0.20;99.90;-0.50;101326.00;;;;4784455;29;88676;-67
2023/01/21 05:25:13;;;;;;;8.03;4.57;;;-0.10;99.90;-0.50;101309.00;;;;4779819;29;87901;-67
2023/01/21 05:27:39;;;;;;;7.77;5.63;;;-0.10;99.90;-0.50;101319.00;;;;4785506;29;87213;-66
2023/01/21 05:30:05;;;;;;;10.97;4.73;;;-0.10;99.90;-0.50;101316.00;;;;4780770;29;117699;-67
2023/01/21 05:32:31;;;;;;;9.87;4.80;;;-0.20;99.90;-0.50;101315.00;;;;4783463;29;89767;-68
2023/01/21 05:34:57;;;;;;;9.27;5.03;;;-0.20;99.90;-0.50;101315.00;;;;4782234;29;90204;-67
2023/01/21 05:37:23;;;;;;;7.50;5.20;;;-0.10;99.90;-0.50;101307.00;;;;4782226;29;88132;-68
2023/01/21 05:39:48;;;;;;;10.23;5.63;;;-0.10;99.90;-0.50;101316.00;;;;4781224;29;116762;-68
2023/01/21 05:42:14;;;;;;;6.60;3.93;;;-0.10;99.90;-0.40;101319.00;;;;4780054;29;117938;-66
2023/01/21 05:44:39;;;;;;;12.57;5.50;;;-0.10;99.90;-0.40;101313.00;;;;4780840;29;111164;-67
2023/01/21 05:47:07;;;;;;;8.33;4.57;;;-0.10;99.90;-0.40;101310.00;;;;4780536;29;108817;-67
2023/01/21 05:49:33;;;;;;;7.87;4.63;;;-0.10;99.90;-0.40;101306.00;;;;4783108;29;88845;-67
2023/01/21 05:51:59;;;;;;;11.13;4.63;;;0.00;99.90;-0.30;101316.00;;;;4786161;29;107433;-67
2023/01/21 05:54:25;;;;;;;6.67;4.87;;;0.00;99.90;-0.40;101315.00;;;;4783746;29;108842;-67
2023/01/21 05:56:50;;;;;;;10.77;5.97;;;0.00;99.90;-0.40;101316.00;;;;4783899;29;108731;-67
2023/01/21 05:59:16;;;;;;;8.80;4.33;;;-0.10;99.90;-0.40;101315.00;;;;4779634;29;89841;-67
2023/01/21 06:01:42;;;;;;;13.27;4.97;;;0.10;99.90;-0.30;101325.00;;;;4781792;29;109855;-67
2023/01/21 06:04:07;;;;;;;6.10;4.10;;;0.00;99.90;-0.30;101316.00;;;;4783492;29;87906;-69
2023/01/21 06:06:33;;;;;;;7.73;5.23;;;0.00;99.90;-0.30;101324.00;;;;4785040;29;109139;-68
2023/01/21 06:08:59;;;;;;;6.73;4.87;;;0.00;99.90;-0.30;101336.00;;;;4782066;29;88099;-68
2023/01/21 06:11:24;;;;;;;10.97;5.87;;;0.00;99.90;-0.30;101330.00;;;;4780700;29;117359;-69
2023/01/21 06:13:50;;;;;;;8.20;5.50;;;0.10;99.90;-0.30;101323.00;;;;4781622;29;110162;-67
2023/01/21 06:16:16;;;;;;;7.53;5.13;;;0.00;99.90;-0.30;101326.00;;;;4783871;29;86998;-68
2023/01/21 06:18:41;;;;;;;8.43;4.80;;;0.00;99.90;-0.30;101324.00;;;;4783225;29;95522;-68
2023/01/21 06:21:07;;;;;;;6.47;3.47;;;0.00;99.90;-0.30;101322.00;;;;4780440;29;116905;-68
2023/01/21 06:23:32;;;;;;;11.03;5.80;;;0.00;99.90;-0.30;101326.00;;;;4782676;29;109293;-68
2023/01/21 06:26:00;;;;;;;6.83;4.83;;;0.10;99.90;-0.30;101328.00;;;;4782688;29;108514;-67
2023/01/21 06:28:26;;;;;;;10.67;5.10;;;0.00;99.90;-0.30;101325.00;;;;4784141;29;88841;-67
2023/01/21 06:30:52;;;;;;;7.33;4.43;;;0.00;99.90;-0.30;101333.00;;;;4784412;29;108893;-69
2023/01/21 06:33:17;;;;;;;12.10;4.47;;;0.00;99.90;-0.30;101335.00;;;;4766704;29;95091;-69
2023/01/21 06:35:43;;;;;;;8.80;4.47;;;0.10;99.90;-0.30;101330.00;;;;4782932;29;107776;-68
2023/01/21 06:38:09;;;;;;;8.67;4.97;;;0.10;99.90;-0.20;101331.00;;;;4783289;29;117312;-69
2023/01/21 06:40:34;;;;;;;9.87;4.87;;;0.10;99.90;-0.20;101323.00;;;;4782837;29;117288;-67
2023/01/21 06:43:00;;;;;;;9.83;4.67;;;0.10;99.90;-0.20;101332.00;;;;4781114;29;110880;-68
2023/01/21 06:45:26;;;;;;;8.43;5.23;;;0.10;99.90;-0.20;101338.00;;;;4781458;29;109196;-68
2023/01/21 06:47:52;;;;;;;8.53;5.60;;;0.10;99.90;-0.20;101337.00;;;;4782360;29;89898;-68
2023/01/21 06:50:17;;;;;;;12.53;6.03;;;0.10;99.90;-0.20;101339.00;;;;4780516;29;118910;-68
2023/01/21 06:52:46;;;;;;;8.77;5.57;;;0.20;99.90;-0.20;101346.00;;;;4784474;29;104579;-68
2023/01/21 06:55:13;;;;;;;8.03;5.40;;;0.20;99.90;-0.10;101333.00;;;;4781154;29;87740;-68
2023/01/21 06:57:39;;;;;;;9.87;6.37;;;0.20;99.90;-0.10;101330.00;;;;4781104;29;87869;-68
2023/01/21 07:00:07;;;;;;;8.93;6.33;;;0.30;99.90;-0.10;101340.00;;;;4778657;29;117544;-70
2023/01/21 07:02:33;;;;;;;14.57;7.20;;;0.30;99.90;-0.10;101348.00;;;;4784157;29;87749;-68
2023/01/21 07:04:59;;;;;;;10.13;6.07;;;0.20;99.90;-0.10;101356.00;;;;4784427;29;99926;-68
2023/01/21 07:07:24;;;;;;;9.83;5.87;;;0.30;99.90;-0.10;101343.00;;;;4784212;29;109251;-68
2023/01/21 07:09:50;;;;;;;8.37;6.27;;;0.20;99.90;-0.10;101347.00;;;;4792151;29;88016;-69
2023/01/21 07:12:16;;;;;;;9.80;5.83;;;0.20;99.90;-0.10;101345.00;;;;4778505;29;110482;-69
2023/01/21 07:14:41;;;;;;;7.43;5.10;;;0.30;99.90;0.00;101361.00;;;;4779373;29;97216;-68
2023/01/21 07:17:07;;;;;;;10.50;4.77;;;0.30;99.90;0.00;101351.00;;;;4780023;29;88919;-68
2023/01/21 07:19:33;;;;;;;6.97;4.67;;;0.30;99.90;0.00;101358.00;;;;4779709;29;117397;-68
2023/01/21 07:21:58;;;;;;;7.00;4.57;;;0.30;99.90;0.00;101356.00;;;;4779457;29;109666;-68
2023/01/21 07:24:24;;;;;;;6.83;5.47;;;0.40;99.90;0.00;101351.00;;;;4780978;29;87917;-69
2023/01/21 07:26:50;;;;;;;9.80;4.63;;;0.40;99.90;0.00;101358.00;;;;4778977;29;118578;-68
2023/01/21 07:29:15;;;;;;;8.70;4.43;;;0.40;99.90;0.00;101349.00;;;;4778287;29;116595;-68
2023/01/21 07:31:42;;;;;;;7.13;5.17;;;0.40;99.90;0.00;101356.00;;;;4779386;29;88786;-68
2023/01/21 07:34:07;;;;;;;11.97;5.57;;;0.30;99.90;0.00;101359.00;;;;4778773;29;87873;-68
2023/01/21 07:36:33;;;;;;;10.50;5.83;;;0.30;99.90;0.00;101350.00;;;;4777732;29;118899;-69
2023/01/21 07:38:59;;;;;;;9.80;5.70;;;0.40;99.90;0.10;101365.00;;;;4777055;29;117941;-68
2023/01/21 07:41:24;;;;;;;9.93;5.30;;;0.40;99.90;0.10;101361.00;;;;4778765;29;111234;-68
2023/01/21 07:43:50;;;;;;;8.77;5.30;;;0.40;99.90;0.10;101356.00;;;;4778383;29;99499;-70
2023/01/21 07:46:21;;;;;;;7.97;5.87;;;0.40;99.90;0.10;101356.00;;;;4776916;29;117009;-69
2023/01/21 07:48:49;;;;;;;6.87;4.37;;;0.50;99.90;0.10;101350.00;;;;4780390;29;87928;-69
2023/01/21 07:51:15;;;;;;;6.43;4.50;;;0.40;99.90;0.20;101351.00;;;;4760980;29;88042;-69
2023/01/21 07:53:41;;;;;;;7.43;5.23;;;0.50;99.90;0.20;101347.00;;;;4778276;29;93783;-68
2023/01/21 07:56:09;;;;;;;10.37;6.37;;;0.50;99.90;0.20;101330.00;;;;4778432;29;118687;-69
2023/01/21 07:58:35;;;;;;;6.43;4.63;;;0.60;99.90;0.20;101340.00;;;;4792871;29;88024;-68
2023/01/21 08:01:08;;;;;;;7.37;4.80;;;0.50;99.90;0.20;101343.00;;;;4778200;29;96153;-69
2023/01/21 08:03:37;;;;;;;8.33;5.10;;;0.50;99.90;0.20;101339.00;;;;4776789;29;100143;-68
2023/01/21 08:06:04;;;;;;;7.80;5.23;;;0.50;99.90;0.30;101341.00;;;;4778554;29;88315;-69
2023/01/21 08:08:31;;;;;;;6.83;5.53;;;0.70;99.90;0.30;101355.00;;;;4780112;29;88921;-68
2023/01/21 08:10:56;;;;;;;7.93;4.57;;;0.60;99.90;0.30;101341.00;;;;4779017;29;87901;-69
2023/01/21 08:13:23;;;;;;;7.80;5.00;;;0.70;99.90;0.30;101342.00;;;;4779646;29;87798;-68
2023/01/21 08:15:50;;;;;;;6.70;4.50;;;0.60;99.90;0.40;101349.00;;;;4780137;29;98007;-69
2023/01/21 08:18:17;;;;;;;9.23;5.30;;;0.70;99.90;0.40;101348.00;;;;4777767;29;87935;-68
2023/01/21 08:20:43;;;;;;;10.00;5.43;;;0.60;99.90;0.40;101352.00;;;;4779408;29;87899;-68
2023/01/21 08:23:08;;;;;;;9.10;4.73;;;0.70;99.90;0.40;101356.00;;;;4778298;29;87946;-68
2023/01/21 08:25:34;;;;;;;10.37;7.13;;;0.70;99.90;0.40;101362.00;;;;4777515;29;116961;-69
2023/01/21 08:28:00;;;;;;;10.33;6.83;;;0.90;99.90;0.40;101352.00;;;;4779190;29;118741;-69
2023/01/21 08:30:25;;;;;;;5.80;5.17;;;0.80;99.90;0.40;101355.00;;;;4778541;29;88206;-68
2023/01/21 08:32:51;;;;;;;6.20;4.30;;;0.70;99.90;0.50;101345.00;;;;4778278;29;95206;-69
2023/01/21 08:35:17;;;;;;;13.73;5.87;;;0.80;99.90;0.50;101362.00;;;;4777571;29;117379;-68
2023/01/21 08:37:43;;;;;;;12.00;5.50;;;0.70;99.90;0.50;101349.00;;;;4779339;29;118334;-69
2023/01/21 08:40:09;;;;;;;7.67;5.57;;;0.70;99.90;0.50;101342.00;;;;4779211;29;88294;-69
2023/01/21 08:42:35;;;;;;;6.70;5.03;;;0.80;99.90;0.50;101352.00;;;;4777601;29;94528;-70
2023/01/21 08:45:01;;;;;;;9.50;5.73;;;0.80;99.90;0.50;101356.00;;;;4779082;29;109311;-69
2023/01/21 08:47:26;;;;;;;7.70;5.57;;;0.80;99.90;0.50;101351.00;;;;4777846;29;118927;-69
2023/01/21 08:49:52;;;;;;;7.67;5.50;;;0.90;99.90;0.60;101349.00;;;;4777568;29;89109;-69
2023/01/21 08:52:19;;;;;;;11.43;5.23;;;1.80;99.90;0.60;101348.00;;;;4778963;29;108444;-68
2023/01/21 08:54:45;;;;;;;7.77;5.40;;;0.90;99.90;0.60;101350.00;;;;4777152;29;88672;-69
2023/01/21 08:57:11;;;;;;;9.93;5.53;;;2.40;99.90;0.70;101350.00;;;;4775766;29;117530;-69
2023/01/21 08:59:37;;;;;;;9.63;5.57;;;1.10;99.90;0.70;101368.00;;;;4777579;29;88171;-69
2023/01/21 09:02:03;;;;;;;9.60;6.23;;;1.00;99.90;0.70;101349.00;;;;4778250;29;88475;-68
2023/01/21 09:04:29;;;;;;;9.00;4.97;;;1.00;99.90;0.70;101356.00;;;;4775841;29;109702;-69
2023/01/21 09:06:54;;;;;;;10.67;5.30;;;1.00;99.90;0.70;101355.00;;;;4776299;29;117766;-67
2023/01/21 09:09:20;;;;;;;9.97;5.00;;;1.00;99.90;0.70;101361.00;;;;4775552;29;109789;-69
2023/01/21 09:11:46;;;;;;;19.73;11.90;;;1.00;99.90;0.70;101364.00;;;;4775373;29;106970;-68
2023/01/21 09:14:11;;;;;;;19.30;13.83;;;1.00;99.90;0.70;101352.00;;;;4775728;29;118024;-69
2023/01/21 09:16:37;;;;;;;11.77;7.40;;;1.00;99.90;0.80;101368.00;;;;4777129;29;119622;-68
2023/01/21 09:19:03;;;;;;;7.37;5.53;;;1.10;99.90;0.80;101369.00;;;;4779481;29;93591;-68
2023/01/21 09:21:29;;;;;;;7.23;4.70;;;1.10;99.90;0.80;101358.00;;;;4775978;29;100735;-69
2023/01/21 09:23:55;;;;;;;7.37;4.33;;;1.10;99.90;0.80;101364.00;;;;4778255;29;88168;-68
2023/01/21 09:26:24;;;;;;;8.37;5.63;;;2.20;99.90;0.90;101356.00;;;;4779509;29;87997;-68
2023/01/21 09:28:59;;;;;;;8.97;5.83;;;1.20;99.90;0.90;101361.00;;;;4778438;29;88667;-68
2023/01/21 09:31:27;;;;;;;6.63;4.60;;;1.20;99.90;1.00;101375.00;;;;4778328;29;87209;-69
2023/01/21 09:33:59;;;;;;;6.20;4.90;;;1.30;99.90;1.00;101365.00;;;;4775743;29;88149;-68
2023/01/21 09:36:30;;;;;;;8.80;4.03;;;1.30;99.90;0.90;101362.00;;;;4779261;29;112087;-68
2023/01/21 09:38:56;;;;;;;6.80;5.13;;;1.30;99.90;1.00;101349.00;;;;4779156;29;101388;-68
2023/01/21 09:41:31;;;;;;;6.47;4.47;;;2.30;99.90;0.90;101336.00;;;;4779251;29;87835;-69
2023/01/21 09:44:12;;;;;;;41.17;22.97;;;1.20;99.90;0.90;101352.00;;;;4791404;29;100312;-69
2023/01/21 09:46:56;;;;;;;17.63;10.63;;;1.30;99.90;0.90;101349.00;;;;4777492;29;89092;-68
2023/01/21 09:49:36;;;;;;;12.40;5.97;;;1.30;99.90;0.90;101351.00;;;;4777274;29;88113;-69
2023/01/21 09:52:28;;;;;;;7.53;5.13;;;1.30;99.90;1.00;101357.00;;;;4791149;29;88117;-70
2023/01/21 09:54:56;;;;;;;8.53;5.17;;;1.30;99.90;1.00;101361.00;;;;4777405;29;88159;-68
2023/01/21 09:58:47;;;;;;;8.73;5.13;;;1.30;99.90;1.00;101358.00;;;;4779668;29;101032;-68
2023/01/21 10:01:32;;;;;;;7.10;5.37;;;1.30;99.90;1.00;101351.00;;;;4759945;29;88852;-69
2023/01/21 10:04:33;;;;;;;10.50;5.70;;;1.40;99.90;1.10;101357.00;;;;4745521;29;88121;-68
2023/01/21 10:07:42;;;;;;;8.43;4.73;;;1.80;99.90;1.10;101362.00;;;;4769273;29;89122;-68
2023/01/21 10:10:24;;;;;;;8.37;5.50;;;1.40;99.90;1.10;101350.00;;;;4776391;29;113080;-67
2023/01/21 10:13:22;;;;;;;11.77;6.20;;;1.50;99.90;1.20;101361.00;;;;4776998;29;104375;-67
2023/01/21 10:16:01;;;;;;;11.77;8.77;;;1.50;99.90;1.20;101356.00;;;;4777489;29;104848;-68
2023/01/21 10:18:31;;;;;;;17.53;12.47;;;1.50;99.90;1.30;101360.00;;;;4777545;29;110712;-68
2023/01/21 10:21:44;;;;;;;32.03;16.13;;;1.50;99.90;1.30;101349.00;;;;4781308;29;111908;-68
2023/01/21 10:24:26;;;;;;;8.67;5.93;;;1.60;99.90;1.40;101344.00;;;;4776265;29;106702;-66
2023/01/21 10:26:53;;;;;;;8.50;5.17;;;1.70;99.90;1.40;101349.00;;;;4782600;29;87094;-67
2023/01/21 10:29:22;;;;;;;5.57;4.17;;;1.80;99.90;1.50;101345.00;;;;4774474;29;88613;-68
2023/01/21 10:32:02;;;;;;;6.37;4.80;;;1.70;99.90;1.50;101341.00;;;;4791017;29;89211;-68
2023/01/21 10:34:32;;;;;;;7.03;4.63;;;1.80;99.90;1.50;101339.00;;;;4792494;29;89035;-68
2023/01/21 10:37:14;;;;;;;6.73;3.40;;;1.80;99.90;1.60;101329.00;;;;4779703;29;87799;-68
2023/01/21 10:39:51;;;;;;;6.63;3.90;;;1.90;99.90;1.60;101326.00;;;;4779613;29;103897;-69
2023/01/21 10:42:44;;;;;;;5.60;4.53;;;1.80;99.90;1.60;101334.00;;;;4780106;29;97110;-67
2023/01/21 10:45:38;;;;;;;14.17;8.30;;;2.00;99.90;1.70;101328.00;;;;4781112;29;87696;-68
2023/01/21 10:48:28;;;;;;;10.03;6.37;;;2.00;99.90;1.70;101319.00;;;;4779991;29;87859;-66
2023/01/21 10:51:20;;;;;;;11.67;5.97;;;1.90;99.90;1.70;101320.00;;;;4778989;29;111169;-66
2023/01/21 10:54:08;;;;;;;8.50;4.20;;;2.00;99.90;1.70;101315.00;;;;4780138;29;87292;-67
2023/01/21 10:57:05;;;;;;;8.60;4.80;;;3.00;99.90;1.80;101303.00;;;;4795346;29;105096;-66
2023/01/21 10:59:34;;;;;;;6.07;4.03;;;2.30;99.90;1.80;101315.00;;;;4777353;29;91588;-65
2023/01/21 11:02:29;;;;;;;4.57;3.73;;;2.00;99.90;1.80;101308.00;;;;4790411;29;120049;-67
2023/01/21 11:04:58;;;;;;;12.10;4.90;;;2.10;99.90;1.90;101308.00;;;;4777876;29;90501;-68
2023/01/21 11:07:25;;;;;;;6.53;4.93;;;2.10;99.90;1.90;101306.00;;;;4791194;29;88062;-66